Time,TemperatureF,DewpointF,PressureIn,WindDirection,WindDirectionDegrees,WindSpeedMPH,WindSpeedGustMPH,Humidity,HourlyPrecipIn,Conditions,Clouds,dailyrainin,SoftwareType,DateUTC
2013-04-15 00:53:00,72.0,-99.9,-100.00,WNW,300,6.0,11.0,-999,-99.99,,,-99.99,,2013-04-15 04:53:00,
2013-04-15 01:53:00,72.0,-99.9,-100.00,WNW,300,2.0,6.0,-999,-99.99,,,-99.99,,2013-04-15 05:53:00,
2013-04-15 02:53:00,72.0,-99.9,-100.00,North,0,0.0,2.0,-999,-99.99,,,-99.99,,2013-04-15 06:53:00,
2013-04-15 04:52:00,71.0,-99.9,-100.00,North,0,0.0,0.0,-999,-99.99,,,-99.99,,2013-04-15 08:52:00,
2013-04-15 05:53:00,72.0,-99.9,-100.00,North,0,0.0,2.0,-999,-99.99,,,-99.99,,2013-04-15 09:53:00,
2013-04-15 06:53:00,71.0,-99.9,-100.00,North,0,0.0,2.0,-999,-99.99,,,-99.99,,2013-04-15 10:53:00,
2013-04-15 06:54:00,72.0,-99.9,-100.00,SE,140,2.0,5.0,-999,-99.99,,,-99.99,,2013-04-15 10:54:00,
2013-04-15 07:54:00,73.0,-99.9,-100.00,East,90,1.0,3.0,-999,-99.99,,,-99.99,,2013-04-15 11:54:00,
2013-04-15 08:54:00,74.0,-99.9,-100.00,ESE,120,3.0,7.0,-999,-99.99,,,-99.99,,2013-04-15 12:54:00,
2013-04-15 09:54:00,76.0,-99.9,-100.00,SE,130,1.0,6.0,-999,-99.99,,,-99.99,,2013-04-15 13:54:00,
2013-04-15 10:54:00,76.0,-99.9,-100.00,East,90,5.0,7.0,-999,-99.99,,,-99.99,,2013-04-15 14:54:00,
2013-04-15 11:54:00,79.0,-99.9,-100.00,NE,50,2.0,5.0,-999,-99.99,,,-99.99,,2013-04-15 15:54:00,
2013-04-15 13:53:00,83.0,-99.9,-100.00,ENE,70,3.0,6.0,-999,-99.99,,,-99.99,,2013-04-15 17:53:00,
2013-04-15 14:52:00,86.0,-99.9,-100.00,East,100,3.0,9.0,-999,-99.99,,,-99.99,,2013-04-15 18:52:00,
2013-04-15 14:54:00,87.0,-99.9,-100.00,East,80,6.0,10.0,-999,-99.99,,,-99.99,,2013-04-15 18:54:00,
2013-04-15 16:52:00,87.0,-99.9,-100.00,South,190,3.0,8.0,-999,-99.99,,,-99.99,,2013-04-15 20:52:00,
2013-04-15 17:53:00,88.0,-99.9,-100.00,SW,230,5.0,9.0,-999,-99.99,,,-99.99,,2013-04-15 21:53:00,
2013-04-15 18:52:00,86.0,-99.9,-100.00,SW,230,5.0,7.0,-999,-99.99,,,-99.99,,2013-04-15 22:52:00,
2013-04-15 19:52:00,85.0,-99.9,-100.00,WSW,240,2.0,6.0,-999,-99.99,,,-99.99,,2013-04-15 23:52:00,
2013-04-15 20:52:00,82.0,-99.9,-100.00,SW,230,5.0,8.0,-999,-99.99,,,-99.99,,2013-04-16 00:52:00,
2013-04-15 21:52:00,80.0,-99.9,-100.00,West,260,2.0,3.0,-999,-99.99,,,-99.99,,2013-04-16 01:52:00,
2013-04-15 22:52:00,79.0,-99.9,-100.00,West,270,3.0,6.0,-999,-99.99,,,-99.99,,2013-04-16 02:52:00,
2013-04-15 23:53:00,78.0,-99.9,-100.00,East,90,3.0,6.0,-999,-99.99,,,-99.99,,2013-04-16 03:53:00,